sensor_id;sensor_type;location;lat;lon;timestamp;P1;durP1;ratioP1;P2;durP2;ratioP2
2157;SDS011;41972;48.774;9.282;2023-02-23T00:01:15;40.50;;;37.40;;
2157;SDS011;41972;48.774;9.282;2023-02-23T00:03:49;37.40;;;33.60;;
2157;SDS011;41972;48.774;9.282;2023-02-23T00:06:15;35.20;;;32.07;;
2157;SDS011;41972;48.774;9.282;2023-02-23T00:08:42;29.97;;;27.27;;
2157;SDS011;41972;48.774;9.282;2023-02-23T00:11:10;45.53;;;42.03;;
2157;SDS011;41972;48.774;9.282;2023-02-23T00:13:36;39.87;;;36.60;;
2157;SDS011;41972;48.774;9.282;2023-02-23T00:16:12;36.80;;;33.50;;
2157;SDS011;41972;48.774;9.282;2023-02-23T00:18:43;36.87;;;33.70;;
2157;SDS011;41972;48.774;9.282;2023-02-23T00:21:25;37.07;;;34.27;;
2157;SDS011;41972;48.774;9.282;2023-02-23T00:24:05;29.60;;;27.10;;
2157;SDS011;41972;48.774;9.282;2023-02-23T00:26:33;53.03;;;49.83;;
2157;SDS011;41972;48.774;9.282;2023-02-23T00:29:01;32.77;;;29.87;;
2157;SDS011;41972;48.774;9.282;2023-02-23T00:31:28;30.10;;;27.33;;
2157;SDS011;41972;48.774;9.282;2023-02-23T00:33:55;29.80;;;26.93;;
2157;SDS011;41972;48.774;9.282;2023-02-23T00:36:26;31.37;;;28.37;;
2157;SDS011;41972;48.774;9.282;2023-02-23T00:38:53;42.60;;;39.33;;
2157;SDS011;41972;48.774;9.282;2023-02-23T00:41:21;37.33;;;34.10;;
2157;SDS011;41972;48.774;9.282;2023-02-23T00:43:52;48.97;;;44.33;;
2157;SDS011;41972;48.774;9.282;2023-02-23T00:46:19;57.40;;;52.80;;
2157;SDS011;41972;48.774;9.282;2023-02-23T00:48:46;36.63;;;33.23;;
2157;SDS011;41972;48.774;9.282;2023-02-23T00:51:13;37.40;;;33.77;;
2157;SDS011;41972;48.774;9.282;2023-02-23T00:53:39;33.13;;;29.97;;
2157;SDS011;41972;48.774;9.282;2023-02-23T00:56:05;34.33;;;31.67;;
2157;SDS011;41972;48.774;9.282;2023-02-23T00:58:32;34.47;;;31.37;;
2157;SDS011;41972;48.774;9.282;2023-02-23T01:00:58;37.53;;;33.93;;
2157;SDS011;41972;48.774;9.282;2023-02-23T01:03:28;44.10;;;40.40;;
2157;SDS011;41972;48.774;9.282;2023-02-23T01:05:58;44.73;;;40.70;;
2157;SDS011;41972;48.774;9.282;2023-02-23T01:08:30;44.23;;;40.63;;
2157;SDS011;41972;48.774;9.282;2023-02-23T01:10:56;42.93;;;38.80;;
2157;SDS011;41972;48.774;9.282;2023-02-23T01:13:22;58.47;;;53.93;;
2157;SDS011;41972;48.774;9.282;2023-02-23T01:15:50;46.83;;;42.90;;
2157;SDS011;41972;48.774;9.282;2023-02-23T01:18:18;40.63;;;37.17;;
2157;SDS011;41972;48.774;9.282;2023-02-23T01:20:44;43.53;;;39.87;;
2157;SDS011;41972;48.774;9.282;2023-02-23T01:23:14;42.37;;;38.97;;
2157;SDS011;41972;48.774;9.282;2023-02-23T01:25:41;40.27;;;36.80;;
2157;SDS011;41972;48.774;9.282;2023-02-23T01:28:08;48.00;;;44.47;;
2157;SDS011;41972;48.774;9.282;2023-02-23T01:30:35;47.67;;;43.87;;
2157;SDS011;41972;48.774;9.282;2023-02-23T01:33:01;42.93;;;39.23;;
2157;SDS011;41972;48.774;9.282;2023-02-23T01:35:27;44.13;;;40.20;;
2157;SDS011;41972;48.774;9.282;2023-02-23T01:37:53;40.13;;;36.77;;
2157;SDS011;41972;48.774;9.282;2023-02-23T01:40:20;49.70;;;45.73;;
2157;SDS011;41972;48.774;9.282;2023-02-23T01:42:57;53.73;;;49.10;;
2157;SDS011;41972;48.774;9.282;2023-02-23T01:45:34;46.23;;;41.83;;
2157;SDS011;41972;48.774;9.282;2023-02-23T01:48:03;45.03;;;40.87;;
2157;SDS011;41972;48.774;9.282;2023-02-23T01:51:17;44.10;;;39.93;;
2157;SDS011;41972;48.774;9.282;2023-02-23T01:53:21;55.47;;;51.00;;
2157;SDS011;41972;48.774;9.282;2023-02-23T01:55:49;47.67;;;43.47;;
2157;SDS011;41972;48.774;9.282;2023-02-23T01:58:19;43.93;;;40.13;;
2157;SDS011;41972;48.774;9.282;2023-02-23T02:00:48;49.00;;;44.77;;
2157;SDS011;41972;48.774;9.282;2023-02-23T02:03:29;49.13;;;45.33;;
2157;SDS011;41972;48.774;9.282;2023-02-23T02:06:01;67.37;;;62.47;;
2157;SDS011;41972;48.774;9.282;2023-02-23T02:08:29;46.77;;;42.43;;
2157;SDS011;41972;48.774;9.282;2023-02-23T02:10:57;46.17;;;42.03;;
2157;SDS011;41972;48.774;9.282;2023-02-23T02:13:27;44.53;;;40.10;;
2157;SDS011;41972;48.774;9.282;2023-02-23T02:19:01;48.70;;;44.93;;
2157;SDS011;41972;48.774;9.282;2023-02-23T02:35:47;43.33;;;39.50;;
2157;SDS011;41972;48.774;9.282;2023-02-23T02:41:19;47.67;;;43.57;;
2157;SDS011;41972;48.774;9.282;2023-02-23T02:44:01;43.70;;;40.40;;
2157;SDS011;41972;48.774;9.282;2023-02-23T02:46:50;40.77;;;37.17;;
2157;SDS011;41972;48.774;9.282;2023-02-23T02:51:52;56.43;;;52.43;;
2157;SDS011;41972;48.774;9.282;2023-02-23T02:54:36;53.97;;;50.07;;
2157;SDS011;41972;48.774;9.282;2023-02-23T02:57:05;49.60;;;45.53;;
2157;SDS011;41972;48.774;9.282;2023-02-23T02:59:43;45.23;;;41.43;;
2157;SDS011;41972;48.774;9.282;2023-02-23T03:02:30;50.57;;;46.47;;
2157;SDS011;41972;48.774;9.282;2023-02-23T03:05:17;52.90;;;48.53;;
2157;SDS011;41972;48.774;9.282;2023-02-23T03:17:14;41.63;;;38.13;;
2157;SDS011;41972;48.774;9.282;2023-02-23T03:20:14;39.77;;;36.03;;
2157;SDS011;41972;48.774;9.282;2023-02-23T03:26:29;51.33;;;47.40;;
2157;SDS011;41972;48.774;9.282;2023-02-23T03:29:26;45.03;;;41.37;;
2157;SDS011;41972;48.774;9.282;2023-02-23T03:32:29;55.57;;;51.03;;
2157;SDS011;41972;48.774;9.282;2023-02-23T03:35:22;43.73;;;39.67;;
2157;SDS011;41972;48.774;9.282;2023-02-23T03:41:20;81.63;;;76.47;;
2157;SDS011;41972;48.774;9.282;2023-02-23T03:44:11;64.93;;;60.00;;
2157;SDS011;41972;48.774;9.282;2023-02-23T03:47:06;76.00;;;71.20;;
2157;SDS011;41972;48.774;9.282;2023-02-23T03:49:52;56.20;;;52.13;;
2157;SDS011;41972;48.774;9.282;2023-02-23T03:52:40;44.97;;;41.13;;
2157;SDS011;41972;48.774;9.282;2023-02-23T03:55:29;47.97;;;44.20;;
2157;SDS011;41972;48.774;9.282;2023-02-23T03:58:20;43.47;;;39.10;;
2157;SDS011;41972;48.774;9.282;2023-02-23T04:01:18;41.57;;;38.00;;
2157;SDS011;41972;48.774;9.282;2023-02-23T04:04:04;47.97;;;43.97;;
2157;SDS011;41972;48.774;9.282;2023-02-23T04:06:51;60.93;;;56.07;;
2157;SDS011;41972;48.774;9.282;2023-02-23T04:09:37;51.00;;;46.90;;
2157;SDS011;41972;48.774;9.282;2023-02-23T04:13:05;56.30;;;52.20;;
2157;SDS011;41972;48.774;9.282;2023-02-23T04:15:51;43.33;;;39.70;;
2157;SDS011;41972;48.774;9.282;2023-02-23T04:18:24;92.10;;;86.37;;
2157;SDS011;41972;48.774;9.282;2023-02-23T04:20:51;46.60;;;42.60;;
2157;SDS011;41972;48.774;9.282;2023-02-23T04:23:21;38.77;;;34.77;;
2157;SDS011;41972;48.774;9.282;2023-02-23T04:25:48;45.33;;;41.43;;
2157;SDS011;41972;48.774;9.282;2023-02-23T04:28:14;41.00;;;37.40;;
2157;SDS011;41972;48.774;9.282;2023-02-23T04:30:40;40.63;;;37.33;;
2157;SDS011;41972;48.774;9.282;2023-02-23T04:33:06;42.63;;;39.47;;
2157;SDS011;41972;48.774;9.282;2023-02-23T04:35:32;42.20;;;38.80;;
2157;SDS011;41972;48.774;9.282;2023-02-23T04:37:58;46.20;;;42.33;;
2157;SDS011;41972;48.774;9.282;2023-02-23T04:40:24;38.97;;;35.23;;
2157;SDS011;41972;48.774;9.282;2023-02-23T04:42:50;47.07;;;43.27;;
2157;SDS011;41972;48.774;9.282;2023-02-23T04:45:16;50.23;;;46.43;;
2157;SDS011;41972;48.774;9.282;2023-02-23T04:47:42;46.10;;;41.90;;
2157;SDS011;41972;48.774;9.282;2023-02-23T04:50:08;63.67;;;58.67;;
2157;SDS011;41972;48.774;9.282;2023-02-23T04:52:34;42.10;;;38.53;;
2157;SDS011;41972;48.774;9.282;2023-02-23T04:55:01;44.30;;;40.50;;
2157;SDS011;41972;48.774;9.282;2023-02-23T04:57:27;44.07;;;39.97;;
2157;SDS011;41972;48.774;9.282;2023-02-23T04:59:53;44.47;;;40.67;;
2157;SDS011;41972;48.774;9.282;2023-02-23T05:02:19;44.30;;;40.80;;
2157;SDS011;41972;48.774;9.282;2023-02-23T05:04:44;42.40;;;38.70;;
2157;SDS011;41972;48.774;9.282;2023-02-23T05:07:10;42.70;;;38.93;;
2157;SDS011;41972;48.774;9.282;2023-02-23T05:09:35;41.03;;;37.63;;
2157;SDS011;41972;48.774;9.282;2023-02-23T05:12:01;41.00;;;37.60;;
2157;SDS011;41972;48.774;9.282;2023-02-23T05:14:26;41.67;;;38.23;;
2157;SDS011;41972;48.774;9.282;2023-02-23T05:16:52;42.80;;;39.17;;
2157;SDS011;41972;48.774;9.282;2023-02-23T05:19:17;43.07;;;39.10;;
2157;SDS011;41972;48.774;9.282;2023-02-23T05:21:43;41.50;;;37.73;;
2157;SDS011;41972;48.774;9.282;2023-02-23T05:24:09;43.87;;;39.83;;
2157;SDS011;41972;48.774;9.282;2023-02-23T05:26:34;41.67;;;37.93;;
2157;SDS011;41972;48.774;9.282;2023-02-23T05:29:00;40.07;;;36.67;;
2157;SDS011;41972;48.774;9.282;2023-02-23T05:31:26;39.97;;;36.37;;
2157;SDS011;41972;48.774;9.282;2023-02-23T05:33:52;39.30;;;36.00;;
2157;SDS011;41972;48.774;9.282;2023-02-23T05:36:18;39.07;;;35.53;;
2157;SDS011;41972;48.774;9.282;2023-02-23T05:38:45;39.63;;;36.03;;
2157;SDS011;41972;48.774;9.282;2023-02-23T05:41:12;43.10;;;39.40;;
2157;SDS011;41972;48.774;9.282;2023-02-23T05:43:39;48.23;;;44.53;;
2157;SDS011;41972;48.774;9.282;2023-02-23T05:46:08;43.20;;;39.73;;
2157;SDS011;41972;48.774;9.282;2023-02-23T05:48:35;41.57;;;37.90;;
2157;SDS011;41972;48.774;9.282;2023-02-23T05:51:02;40.80;;;37.47;;
2157;SDS011;41972;48.774;9.282;2023-02-23T05:53:34;44.73;;;41.23;;
2157;SDS011;41972;48.774;9.282;2023-02-23T05:56:00;44.23;;;40.57;;
2157;SDS011;41972;48.774;9.282;2023-02-23T05:58:27;39.93;;;36.73;;
2157;SDS011;41972;48.774;9.282;2023-02-23T06:00:53;42.83;;;39.23;;
2157;SDS011;41972;48.774;9.282;2023-02-23T06:03:18;38.80;;;35.70;;
2157;SDS011;41972;48.774;9.282;2023-02-23T06:05:54;38.70;;;35.40;;
2157;SDS011;41972;48.774;9.282;2023-02-23T06:08:21;42.10;;;38.80;;
2157;SDS011;41972;48.774;9.282;2023-02-23T06:10:48;37.83;;;34.70;;
2157;SDS011;41972;48.774;9.282;2023-02-23T06:13:14;56.27;;;52.17;;
2157;SDS011;41972;48.774;9.282;2023-02-23T06:15:40;43.40;;;39.80;;
2157;SDS011;41972;48.774;9.282;2023-02-23T06:18:06;52.03;;;48.20;;
2157;SDS011;41972;48.774;9.282;2023-02-23T06:20:33;36.77;;;33.60;;
2157;SDS011;41972;48.774;9.282;2023-02-23T06:22:59;47.13;;;43.47;;
2157;SDS011;41972;48.774;9.282;2023-02-23T06:25:24;38.33;;;34.67;;
2157;SDS011;41972;48.774;9.282;2023-02-23T06:27:50;46.23;;;42.83;;
2157;SDS011;41972;48.774;9.282;2023-02-23T06:30:15;53.87;;;50.23;;
2157;SDS011;41972;48.774;9.282;2023-02-23T06:32:41;33.97;;;31.27;;
2157;SDS011;41972;48.774;9.282;2023-02-23T06:35:07;51.53;;;47.83;;
2157;SDS011;41972;48.774;9.282;2023-02-23T06:37:33;55.57;;;51.57;;
2157;SDS011;41972;48.774;9.282;2023-02-23T06:40:00;46.77;;;43.53;;
2157;SDS011;41972;48.774;9.282;2023-02-23T06:42:26;38.90;;;35.80;;
2157;SDS011;41972;48.774;9.282;2023-02-23T06:44:52;34.90;;;32.00;;
2157;SDS011;41972;48.774;9.282;2023-02-23T06:47:18;41.50;;;38.13;;
2157;SDS011;41972;48.774;9.282;2023-02-23T06:49:43;36.13;;;32.93;;
2157;SDS011;41972;48.774;9.282;2023-02-23T06:52:09;42.13;;;38.93;;
2157;SDS011;41972;48.774;9.282;2023-02-23T06:54:37;39.13;;;36.03;;
2157;SDS011;41972;48.774;9.282;2023-02-23T06:57:04;41.83;;;38.73;;
2157;SDS011;41972;48.774;9.282;2023-02-23T06:59:30;46.40;;;43.00;;
2157;SDS011;41972;48.774;9.282;2023-02-23T07:01:55;41.07;;;37.77;;
2157;SDS011;41972;48.774;9.282;2023-02-23T07:04:21;48.27;;;44.73;;
2157;SDS011;41972;48.774;9.282;2023-02-23T07:06:47;51.63;;;47.73;;
2157;SDS011;41972;48.774;9.282;2023-02-23T07:09:13;47.13;;;43.53;;
2157;SDS011;41972;48.774;9.282;2023-02-23T07:11:39;39.30;;;35.90;;
2157;SDS011;41972;48.774;9.282;2023-02-23T07:14:05;33.30;;;30.50;;
2157;SDS011;41972;48.774;9.282;2023-02-23T07:16:34;36.40;;;33.20;;
2157;SDS011;41972;48.774;9.282;2023-02-23T07:19:00;37.60;;;34.43;;
2157;SDS011;41972;48.774;9.282;2023-02-23T07:21:27;37.20;;;33.80;;
2157;SDS011;41972;48.774;9.282;2023-02-23T07:23:53;35.83;;;32.80;;
2157;SDS011;41972;48.774;9.282;2023-02-23T07:26:19;39.87;;;36.43;;
2157;SDS011;41972;48.774;9.282;2023-02-23T07:28:44;37.70;;;34.07;;
2157;SDS011;41972;48.774;9.282;2023-02-23T07:31:10;36.13;;;32.60;;
2157;SDS011;41972;48.774;9.282;2023-02-23T07:33:35;37.90;;;34.57;;
2157;SDS011;41972;48.774;9.282;2023-02-23T07:36:01;36.77;;;33.37;;
2157;SDS011;41972;48.774;9.282;2023-02-23T07:38:26;39.40;;;36.10;;
2157;SDS011;41972;48.774;9.282;2023-02-23T07:40:52;35.87;;;32.23;;
2157;SDS011;41972;48.774;9.282;2023-02-23T07:43:18;40.97;;;37.67;;
2157;SDS011;41972;48.774;9.282;2023-02-23T07:45:47;82.00;;;77.87;;
2157;SDS011;41972;48.774;9.282;2023-02-23T07:48:13;57.67;;;53.83;;
2157;SDS011;41972;48.774;9.282;2023-02-23T07:50:39;31.90;;;29.13;;
2157;SDS011;41972;48.774;9.282;2023-02-23T07:53:05;39.13;;;35.77;;
2157;SDS011;41972;48.774;9.282;2023-02-23T07:55:30;41.13;;;38.13;;
2157;SDS011;41972;48.774;9.282;2023-02-23T07:57:56;41.33;;;38.17;;
2157;SDS011;41972;48.774;9.282;2023-02-23T08:00:22;31.57;;;28.87;;
2157;SDS011;41972;48.774;9.282;2023-02-23T08:02:49;38.97;;;35.87;;
2157;SDS011;41972;48.774;9.282;2023-02-23T08:05:17;35.00;;;32.40;;
2157;SDS011;41972;48.774;9.282;2023-02-23T08:07:43;35.07;;;32.50;;
2157;SDS011;41972;48.774;9.282;2023-02-23T08:10:09;31.80;;;29.20;;
2157;SDS011;41972;48.774;9.282;2023-02-23T08:12:35;31.97;;;29.47;;
2157;SDS011;41972;48.774;9.282;2023-02-23T08:15:02;26.90;;;24.70;;
2157;SDS011;41972;48.774;9.282;2023-02-23T08:17:32;30.00;;;27.60;;
2157;SDS011;41972;48.774;9.282;2023-02-23T08:19:58;29.97;;;27.77;;
2157;SDS011;41972;48.774;9.282;2023-02-23T08:22:24;34.33;;;31.90;;
2157;SDS011;41972;48.774;9.282;2023-02-23T08:24:50;29.00;;;26.60;;
2157;SDS011;41972;48.774;9.282;2023-02-23T08:27:16;32.13;;;29.63;;
2157;SDS011;41972;48.774;9.282;2023-02-23T08:29:41;26.47;;;24.50;;
2157;SDS011;41972;48.774;9.282;2023-02-23T08:32:07;23.53;;;21.37;;
2157;SDS011;41972;48.774;9.282;2023-02-23T08:34:36;27.47;;;25.20;;
2157;SDS011;41972;48.774;9.282;2023-02-23T08:37:02;39.67;;;36.93;;
2157;SDS011;41972;48.774;9.282;2023-02-23T08:39:28;27.77;;;25.73;;
2157;SDS011;41972;48.774;9.282;2023-02-23T08:41:54;20.37;;;18.67;;
2157;SDS011;41972;48.774;9.282;2023-02-23T08:44:20;20.57;;;18.77;;
2157;SDS011;41972;48.774;9.282;2023-02-23T08:46:46;24.03;;;22.27;;
2157;SDS011;41972;48.774;9.282;2023-02-23T08:49:11;25.00;;;22.90;;
2157;SDS011;41972;48.774;9.282;2023-02-23T08:51:37;30.70;;;28.80;;
2157;SDS011;41972;48.774;9.282;2023-02-23T08:54:03;26.90;;;25.10;;
2157;SDS011;41972;48.774;9.282;2023-02-23T08:56:28;26.93;;;24.90;;
2157;SDS011;41972;48.774;9.282;2023-02-23T08:58:55;36.17;;;34.00;;
2157;SDS011;41972;48.774;9.282;2023-02-23T09:01:21;30.33;;;28.07;;
2157;SDS011;41972;48.774;9.282;2023-02-23T09:03:47;40.20;;;37.60;;
2157;SDS011;41972;48.774;9.282;2023-02-23T09:06:17;91.10;;;87.00;;
2157;SDS011;41972;48.774;9.282;2023-02-23T09:08:44;73.10;;;69.93;;
2157;SDS011;41972;48.774;9.282;2023-02-23T09:11:10;18.87;;;17.17;;
2157;SDS011;41972;48.774;9.282;2023-02-23T09:13:36;19.57;;;17.97;;
2157;SDS011;41972;48.774;9.282;2023-02-23T09:16:01;19.93;;;18.30;;
2157;SDS011;41972;48.774;9.282;2023-02-23T09:18:27;45.97;;;43.13;;
2157;SDS011;41972;48.774;9.282;2023-02-23T09:20:54;19.17;;;17.47;;
2157;SDS011;41972;48.774;9.282;2023-02-23T09:23:20;25.93;;;24.27;;
2157;SDS011;41972;48.774;9.282;2023-02-23T09:25:48;26.93;;;25.10;;
2157;SDS011;41972;48.774;9.282;2023-02-23T09:28:14;33.90;;;31.80;;
2157;SDS011;41972;48.774;9.282;2023-02-23T09:30:42;22.77;;;21.07;;
2157;SDS011;41972;48.774;9.282;2023-02-23T09:33:08;30.03;;;27.90;;
2157;SDS011;41972;48.774;9.282;2023-02-23T09:35:35;40.67;;;38.17;;
2157;SDS011;41972;48.774;9.282;2023-02-23T09:38:01;55.20;;;52.03;;
2157;SDS011;41972;48.774;9.282;2023-02-23T09:40:42;59.17;;;55.73;;
2157;SDS011;41972;48.774;9.282;2023-02-23T09:46:13;79.93;;;75.83;;
2157;SDS011;41972;48.774;9.282;2023-02-23T09:48:55;20.17;;;18.53;;
2157;SDS011;41972;48.774;9.282;2023-02-23T09:51:24;20.60;;;19.00;;
2157;SDS011;41972;48.774;9.282;2023-02-23T09:53:54;21.23;;;19.33;;
2157;SDS011;41972;48.774;9.282;2023-02-23T09:56:24;27.00;;;25.03;;
2157;SDS011;41972;48.774;9.282;2023-02-23T09:59:03;22.33;;;20.40;;
2157;SDS011;41972;48.774;9.282;2023-02-23T10:06:28;20.73;;;19.03;;
2157;SDS011;41972;48.774;9.282;2023-02-23T10:14:19;19.20;;;17.70;;
2157;SDS011;41972;48.774;9.282;2023-02-23T10:23:05;16.23;;;14.93;;
2157;SDS011;41972;48.774;9.282;2023-02-23T10:25:36;16.77;;;15.30;;
2157;SDS011;41972;48.774;9.282;2023-02-23T10:28:10;16.93;;;15.53;;
2157;SDS011;41972;48.774;9.282;2023-02-23T10:30:40;16.27;;;14.97;;
2157;SDS011;41972;48.774;9.282;2023-02-23T10:36:00;16.47;;;14.77;;
2157;SDS011;41972;48.774;9.282;2023-02-23T10:38:40;14.10;;;13.00;;
2157;SDS011;41972;48.774;9.282;2023-02-23T10:41:05;15.37;;;14.27;;
2157;SDS011;41972;48.774;9.282;2023-02-23T10:43:32;18.43;;;17.07;;
2157;SDS011;41972;48.774;9.282;2023-02-23T10:45:58;15.90;;;14.60;;
2157;SDS011;41972;48.774;9.282;2023-02-23T10:48:26;11.80;;;10.60;;
2157;SDS011;41972;48.774;9.282;2023-02-23T10:50:57;21.03;;;19.63;;
2157;SDS011;41972;48.774;9.282;2023-02-23T10:53:29;13.77;;;12.77;;
2157;SDS011;41972;48.774;9.282;2023-02-23T10:56:09;29.33;;;27.50;;
2157;SDS011;41972;48.774;9.282;2023-02-23T10:58:38;37.23;;;35.43;;
2157;SDS011;41972;48.774;9.282;2023-02-23T11:01:10;21.50;;;20.10;;
2157;SDS011;41972;48.774;9.282;2023-02-23T11:06:27;17.20;;;15.83;;
2157;SDS011;41972;48.774;9.282;2023-02-23T11:09:15;14.60;;;12.93;;
2157;SDS011;41972;48.774;9.282;2023-02-23T11:11:55;13.30;;;12.20;;
2157;SDS011;41972;48.774;9.282;2023-02-23T11:14:23;16.80;;;15.23;;
2157;SDS011;41972;48.774;9.282;2023-02-23T11:16:51;14.10;;;12.90;;
2157;SDS011;41972;48.774;9.282;2023-02-23T11:19:20;18.90;;;17.40;;
2157;SDS011;41972;48.774;9.282;2023-02-23T11:21:54;22.60;;;20.90;;
2157;SDS011;41972;48.774;9.282;2023-02-23T11:24:31;12.80;;;11.53;;
2157;SDS011;41972;48.774;9.282;2023-02-23T11:27:00;12.27;;;11.10;;
2157;SDS011;41972;48.774;9.282;2023-02-23T11:32:05;12.30;;;11.07;;
2157;SDS011;41972;48.774;9.282;2023-02-23T11:34:40;11.77;;;10.80;;
2157;SDS011;41972;48.774;9.282;2023-02-23T11:39:52;12.47;;;10.87;;
2157;SDS011;41972;48.774;9.282;2023-02-23T11:42:20;10.43;;;9.53;;
2157;SDS011;41972;48.774;9.282;2023-02-23T11:44:50;12.03;;;11.13;;
2157;SDS011;41972;48.774;9.282;2023-02-23T11:47:49;11.57;;;10.77;;
2157;SDS011;41972;48.774;9.282;2023-02-23T11:50:21;14.57;;;13.57;;
2157;SDS011;41972;48.774;9.282;2023-02-23T11:53:14;26.00;;;24.60;;
2157;SDS011;41972;48.774;9.282;2023-02-23T11:55:50;32.70;;;31.10;;
2157;SDS011;41972;48.774;9.282;2023-02-23T11:58:36;16.60;;;15.47;;
2157;SDS011;41972;48.774;9.282;2023-02-23T12:01:12;15.10;;;14.10;;
2157;SDS011;41972;48.774;9.282;2023-02-23T12:03:45;16.20;;;15.00;;
2157;SDS011;41972;48.774;9.282;2023-02-23T12:06:28;20.03;;;18.73;;
2157;SDS011;41972;48.774;9.282;2023-02-23T12:08:56;10.97;;;10.07;;
2157;SDS011;41972;48.774;9.282;2023-02-23T12:11:45;13.67;;;12.50;;
2157;SDS011;41972;48.774;9.282;2023-02-23T12:14:44;14.27;;;13.10;;
2157;SDS011;41972;48.774;9.282;2023-02-23T12:17:17;16.67;;;15.70;;
2157;SDS011;41972;48.774;9.282;2023-02-23T12:19:48;9.87;;;8.30;;
2157;SDS011;41972;48.774;9.282;2023-02-23T12:22:20;16.73;;;15.67;;
2157;SDS011;41972;48.774;9.282;2023-02-23T12:30:47;18.23;;;17.17;;
2157;SDS011;41972;48.774;9.282;2023-02-23T12:33:29;18.83;;;17.47;;
2157;SDS011;41972;48.774;9.282;2023-02-23T12:38:49;13.40;;;12.37;;
2157;SDS011;41972;48.774;9.282;2023-02-23T12:41:18;14.70;;;13.33;;
2157;SDS011;41972;48.774;9.282;2023-02-23T12:43:59;26.07;;;24.67;;
2157;SDS011;41972;48.774;9.282;2023-02-23T12:46:40;13.97;;;12.73;;
2157;SDS011;41972;48.774;9.282;2023-02-23T12:49:18;14.67;;;13.67;;
2157;SDS011;41972;48.774;9.282;2023-02-23T12:52:06;12.57;;;11.63;;
2157;SDS011;41972;48.774;9.282;2023-02-23T12:54:38;17.70;;;16.40;;
2157;SDS011;41972;48.774;9.282;2023-02-23T13:11:32;14.27;;;13.27;;
2157;SDS011;41972;48.774;9.282;2023-02-23T13:14:24;13.20;;;12.30;;
2157;SDS011;41972;48.774;9.282;2023-02-23T13:17:03;15.93;;;14.70;;
2157;SDS011;41972;48.774;9.282;2023-02-23T13:19:51;14.77;;;13.47;;
2157;SDS011;41972;48.774;9.282;2023-02-23T13:22:39;16.23;;;14.93;;
2157;SDS011;41972;48.774;9.282;2023-02-23T13:25:25;15.33;;;14.10;;
2157;SDS011;41972;48.774;9.282;2023-02-23T13:28:07;13.83;;;12.80;;
2157;SDS011;41972;48.774;9.282;2023-02-23T13:30:41;14.17;;;13.13;;
2157;SDS011;41972;48.774;9.282;2023-02-23T13:33:22;11.67;;;10.30;;
2157;SDS011;41972;48.774;9.282;2023-02-23T13:35:50;13.50;;;12.60;;
2157;SDS011;41972;48.774;9.282;2023-02-23T13:38:18;9.37;;;8.47;;
2157;SDS011;41972;48.774;9.282;2023-02-23T13:40:53;10.53;;;9.73;;
2157;SDS011;41972;48.774;9.282;2023-02-23T13:43:28;11.57;;;10.67;;
2157;SDS011;41972;48.774;9.282;2023-02-23T13:48:46;90.47;;;87.27;;
2157;SDS011;41972;48.774;9.282;2023-02-23T13:51:22;12.93;;;11.90;;
2157;SDS011;41972;48.774;9.282;2023-02-23T13:53:59;26.83;;;25.17;;
2157;SDS011;41972;48.774;9.282;2023-02-23T13:56:35;17.17;;;15.63;;
2157;SDS011;41972;48.774;9.282;2023-02-23T13:59:15;10.93;;;8.13;;
2157;SDS011;41972;48.774;9.282;2023-02-23T14:01:46;9.50;;;8.60;;
2157;SDS011;41972;48.774;9.282;2023-02-23T14:04:28;68.07;;;65.57;;
2157;SDS011;41972;48.774;9.282;2023-02-23T14:07:01;11.93;;;10.90;;
2157;SDS011;41972;48.774;9.282;2023-02-23T14:09:57;12.17;;;10.00;;
2157;SDS011;41972;48.774;9.282;2023-02-23T14:12:42;11.73;;;10.73;;
2157;SDS011;41972;48.774;9.282;2023-02-23T14:15:28;16.20;;;15.20;;
2157;SDS011;41972;48.774;9.282;2023-02-23T14:26:45;12.93;;;11.73;;
2157;SDS011;41972;48.774;9.282;2023-02-23T14:29:43;15.43;;;14.20;;
2157;SDS011;41972;48.774;9.282;2023-02-23T14:32:29;10.73;;;9.17;;
2157;SDS011;41972;48.774;9.282;2023-02-23T14:35:02;12.03;;;9.73;;
2157;SDS011;41972;48.774;9.282;2023-02-23T14:37:33;50.07;;;47.63;;
2157;SDS011;41972;48.774;9.282;2023-02-23T14:40:14;11.93;;;9.90;;
2157;SDS011;41972;48.774;9.282;2023-02-23T14:42:45;11.40;;;8.50;;
2157;SDS011;41972;48.774;9.282;2023-02-23T14:45:20;11.10;;;10.00;;
2157;SDS011;41972;48.774;9.282;2023-02-23T14:48:04;12.40;;;11.23;;
2157;SDS011;41972;48.774;9.282;2023-02-23T14:50:36;8.63;;;7.83;;
2157;SDS011;41972;48.774;9.282;2023-02-23T14:53:03;9.13;;;8.13;;
2157;SDS011;41972;48.774;9.282;2023-02-23T14:55:39;12.33;;;8.03;;
2157;SDS011;41972;48.774;9.282;2023-02-23T14:58:26;9.70;;;8.70;;
2157;SDS011;41972;48.774;9.282;2023-02-23T15:00:54;11.57;;;10.67;;
2157;SDS011;41972;48.774;9.282;2023-02-23T15:03:19;10.03;;;9.23;;
2157;SDS011;41972;48.774;9.282;2023-02-23T15:05:50;9.83;;;7.40;;
2157;SDS011;41972;48.774;9.282;2023-02-23T15:08:20;7.60;;;6.90;;
2157;SDS011;41972;48.774;9.282;2023-02-23T15:10:52;8.33;;;6.30;;
2157;SDS011;41972;48.774;9.282;2023-02-23T15:15:53;6.50;;;5.83;;
2157;SDS011;41972;48.774;9.282;2023-02-23T15:21:42;7.27;;;6.57;;
2157;SDS011;41972;48.774;9.282;2023-02-23T15:24:13;7.80;;;6.43;;
2157;SDS011;41972;48.774;9.282;2023-02-23T15:26:45;12.87;;;10.90;;
2157;SDS011;41972;48.774;9.282;2023-02-23T15:29:18;10.03;;;7.50;;
2157;SDS011;41972;48.774;9.282;2023-02-23T15:31:47;13.20;;;12.30;;
2157;SDS011;41972;48.774;9.282;2023-02-23T15:36:48;8.73;;;6.27;;
2157;SDS011;41972;48.774;9.282;2023-02-23T15:39:24;6.43;;;4.87;;
2157;SDS011;41972;48.774;9.282;2023-02-23T15:42:04;12.10;;;5.47;;
2157;SDS011;41972;48.774;9.282;2023-02-23T15:44:31;8.23;;;6.20;;
2157;SDS011;41972;48.774;9.282;2023-02-23T15:46:59;14.73;;;13.63;;
2157;SDS011;41972;48.774;9.282;2023-02-23T15:49:31;6.70;;;5.77;;
2157;SDS011;41972;48.774;9.282;2023-02-23T15:52:01;12.30;;;7.13;;
2157;SDS011;41972;48.774;9.282;2023-02-23T15:54:33;10.53;;;9.60;;
2157;SDS011;41972;48.774;9.282;2023-02-23T15:57:13;13.70;;;12.70;;
2157;SDS011;41972;48.774;9.282;2023-02-23T15:59:50;13.80;;;12.57;;
2157;SDS011;41972;48.774;9.282;2023-02-23T16:02:18;12.93;;;8.33;;
2157;SDS011;41972;48.774;9.282;2023-02-23T16:04:47;9.30;;;8.37;;
2157;SDS011;41972;48.774;9.282;2023-02-23T16:09:48;17.07;;;15.60;;
2157;SDS011;41972;48.774;9.282;2023-02-23T16:12:21;11.50;;;10.40;;
2157;SDS011;41972;48.774;9.282;2023-02-23T16:14:51;11.17;;;10.17;;
2157;SDS011;41972;48.774;9.282;2023-02-23T16:17:27;13.20;;;12.20;;
2157;SDS011;41972;48.774;9.282;2023-02-23T16:20:17;14.67;;;13.27;;
2157;SDS011;41972;48.774;9.282;2023-02-23T16:23:05;41.17;;;38.87;;
2157;SDS011;41972;48.774;9.282;2023-02-23T16:25:39;9.67;;;8.77;;
2157;SDS011;41972;48.774;9.282;2023-02-23T16:28:07;11.80;;;8.57;;
2157;SDS011;41972;48.774;9.282;2023-02-23T16:30:40;8.97;;;8.07;;
2157;SDS011;41972;48.774;9.282;2023-02-23T16:33:20;9.30;;;8.47;;
2157;SDS011;41972;48.774;9.282;2023-02-23T16:35:49;11.33;;;10.23;;
2157;SDS011;41972;48.774;9.282;2023-02-23T16:38:45;10.60;;;9.33;;
2157;SDS011;41972;48.774;9.282;2023-02-23T16:41:25;10.20;;;9.40;;
2157;SDS011;41972;48.774;9.282;2023-02-23T16:43:54;9.90;;;9.10;;
2157;SDS011;41972;48.774;9.282;2023-02-23T16:46:23;11.30;;;10.20;;
2157;SDS011;41972;48.774;9.282;2023-02-23T16:48:52;11.33;;;10.23;;
2157;SDS011;41972;48.774;9.282;2023-02-23T16:51:19;12.20;;;11.00;;
2157;SDS011;41972;48.774;9.282;2023-02-23T16:53:47;13.50;;;12.40;;
2157;SDS011;41972;48.774;9.282;2023-02-23T16:56:17;9.13;;;8.33;;
2157;SDS011;41972;48.774;9.282;2023-02-23T16:58:46;37.40;;;35.03;;